createdAt,value
2022-12-09T00:01:18.191Z,99690.32
2022-12-09T00:04:05.480Z,99692.04
2022-12-09T00:07:16.619Z,99693.98
2022-12-09T00:30:29.073Z,99685.13
2022-12-09T00:33:44.545Z,99686.77
2022-12-09T00:36:48.885Z,99689.67
2022-12-09T00:39:58.844Z,99692.89
2022-12-09T00:42:50.205Z,99692.53
2022-12-09T00:46:28.820Z,99700.54
2022-12-09T00:49:20.235Z,99696.39
2022-12-09T00:52:31.435Z,99697.14
2022-12-09T00:55:21.639Z,99697.63
2022-12-09T00:58:58.149Z,99693.45
2022-12-09T01:03:01.219Z,99691.21
2022-12-09T01:06:17.144Z,99686.70
2022-12-09T01:09:28.074Z,99688.73
2022-12-09T01:12:39.806Z,99680.29
2022-12-09T01:15:50.340Z,99677.59
2022-12-09T01:19:03.692Z,99676.52
2022-12-09T01:23:00.584Z,99680.95
2022-12-09T01:26:06.703Z,99680.41
2022-12-09T01:29:20.096Z,99672.20
2022-12-09T01:32:31.214Z,99675.46
2022-12-09T01:35:42.507Z,99673.79
2022-12-09T01:38:54.153Z,99674.61
2022-12-09T01:42:17.879Z,99677.33
2022-12-09T01:45:22.030Z,99677.90
2022-12-09T01:48:44.848Z,99673.27
2022-12-09T01:51:32.195Z,99672.04
2022-12-09T01:54:44.902Z,99673.05
2022-12-09T01:57:31.778Z,99669.83
2022-12-09T02:00:20.907Z,99668.30
2022-12-09T02:03:07.806Z,99669.61
2022-12-09T02:06:10.481Z,99665.80
2022-12-09T02:09:21.650Z,99664.44
2022-12-09T02:12:54.658Z,99660.34
2022-12-09T02:16:15.528Z,99661.86
2022-12-09T02:19:05.183Z,99663.34
2022-12-09T02:22:23.398Z,99659.19
2022-12-09T02:25:28.317Z,99659.57
2022-12-09T02:28:24.224Z,99657.73
2022-12-09T02:31:35.846Z,99660.17
2022-12-09T02:34:26.943Z,99660.16
2022-12-09T02:37:23.075Z,99663.01
2022-12-09T02:41:02.103Z,99659.80
2022-12-09T02:44:14.284Z,99658.76
2022-12-09T02:52:28.274Z,99665.67
2022-12-09T02:55:42.235Z,99667.70
2022-12-09T02:58:29.026Z,99667.79
2022-12-09T03:02:06.428Z,99664.39
2022-12-09T03:05:19.180Z,99669.65
2022-12-09T03:08:42.183Z,99667.45
2022-12-09T03:13:04.460Z,99665.40
2022-12-09T03:16:19.504Z,99664.59
2022-12-09T03:19:50.364Z,99659.30
2022-12-09T03:23:05.741Z,99654.92
2022-12-09T03:26:18.912Z,99658.94
2022-12-09T03:44:45.215Z,99654.14
2022-12-09T03:47:32.493Z,99649.99
2022-12-09T03:50:23.279Z,99648.48
2022-12-09T03:53:14.725Z,99643.42
2022-12-09T03:56:14.296Z,99645.91
2022-12-09T03:59:03.652Z,99651.68
2022-12-09T04:01:53.758Z,99647.27
2022-12-09T04:04:42.280Z,99646.44
2022-12-09T04:07:29.147Z,99648.83
2022-12-09T04:10:15.676Z,99648.17
2022-12-09T04:13:02.535Z,99648.14
2022-12-09T04:15:48.990Z,99644.45
2022-12-09T04:18:35.834Z,99644.20
2022-12-09T04:21:22.745Z,99641.02
2022-12-09T04:24:10.144Z,99639.85
2022-12-09T04:26:56.931Z,99645.10
2022-12-09T04:29:43.487Z,99645.30
2022-12-09T04:32:31.415Z,99648.00
2022-12-09T04:35:17.907Z,99649.41
2022-12-09T04:38:04.438Z,99646.45
2022-12-09T04:40:50.830Z,99645.64
2022-12-09T04:43:37.717Z,99646.67
2022-12-09T04:46:25.382Z,99648.56
2022-12-09T04:49:12.489Z,99648.39
2022-12-09T04:51:58.969Z,99647.61
2022-12-09T04:54:45.730Z,99652.81
2022-12-09T04:57:32.614Z,99650.36
2022-12-09T05:00:19.623Z,99648.00
2022-12-09T05:03:06.580Z,99647.52
2022-12-09T05:05:53.364Z,99648.40
2022-12-09T05:08:40.801Z,99645.08
2022-12-09T05:11:28.183Z,99647.54
2022-12-09T05:14:16.456Z,99647.80
2022-12-09T05:17:03.819Z,99645.58
2022-12-09T05:19:51.380Z,99642.78
2022-12-09T05:22:37.994Z,99643.34
2022-12-09T05:25:25.034Z,99644.27
2022-12-09T05:28:12.259Z,99648.71
2022-12-09T05:31:01.819Z,99646.48
2022-12-09T05:33:51.384Z,99644.94
2022-12-09T05:36:38.257Z,99639.88
2022-12-09T05:39:24.609Z,99644.81
2022-12-09T05:42:11.668Z,99647.63
2022-12-09T05:45:00.459Z,99644.22
2022-12-09T05:47:47.111Z,99641.04
2022-12-09T05:50:35.386Z,99643.11
2022-12-09T05:53:22.026Z,99646.80
2022-12-09T05:56:08.529Z,99643.69
2022-12-09T05:58:56.414Z,99643.76
2022-12-09T06:01:43.342Z,99644.26
2022-12-09T06:04:29.955Z,99649.17
2022-12-09T06:07:16.536Z,99651.41
2022-12-09T06:10:04.384Z,99651.02
2022-12-09T06:12:56.086Z,99652.98
2022-12-09T06:15:44.663Z,99651.06
2022-12-09T06:18:32.222Z,99653.55
2022-12-09T06:21:20.869Z,99648.37
2022-12-09T06:24:08.651Z,99656.62
2022-12-09T06:34:24.699Z,99662.20
2022-12-09T06:37:11.531Z,99661.81
2022-12-09T06:39:58.863Z,99663.77
2022-12-09T06:42:46.304Z,99666.88
2022-12-09T06:45:32.652Z,99667.80
2022-12-09T06:48:19.557Z,99673.08
2022-12-09T06:51:08.209Z,99671.30
2022-12-09T06:53:55.284Z,99668.39
2022-12-09T06:56:42.545Z,99668.63
2022-12-09T06:59:29.339Z,99666.61
2022-12-09T07:02:16.253Z,99665.98
2022-12-09T07:05:04.212Z,99666.00
2022-12-09T07:08:17.402Z,99662.84
2022-12-09T07:11:22.671Z,99659.32
2022-12-09T07:14:39.287Z,99658.48
2022-12-09T07:17:43.957Z,99661.02
2022-12-09T07:20:32.004Z,99660.83
2022-12-09T07:23:19.046Z,99658.47
2022-12-09T07:26:08.709Z,99653.86
2022-12-09T07:29:06.532Z,99647.87
2022-12-09T07:31:53.445Z,99649.23
2022-12-09T07:34:51.848Z,99651.67
2022-12-09T07:38:03.042Z,99650.13
2022-12-09T07:40:49.732Z,99654.65
2022-12-09T07:43:36.859Z,99655.69
2022-12-09T08:12:32.065Z,99665.30
2022-12-09T08:22:20.523Z,99671.66
2022-12-09T08:25:08.696Z,99676.26
2022-12-09T08:27:57.826Z,99676.02
2022-12-09T08:30:46.116Z,99674.64
2022-12-09T08:33:34.433Z,99674.32
2022-12-09T08:36:27.386Z,99676.41
2022-12-09T08:39:14.844Z,99682.33
2022-12-09T08:42:03.070Z,99684.90
2022-12-09T08:44:51.811Z,99685.90
2022-12-09T08:47:42.281Z,99682.89
2022-12-09T08:50:29.837Z,99683.36
2022-12-09T08:53:16.604Z,99678.00
2022-12-09T08:56:47.575Z,99681.35
2022-12-09T08:59:35.857Z,99681.55
2022-12-09T09:02:26.616Z,99682.14
2022-12-09T09:05:14.617Z,99678.95
2022-12-09T09:08:25.100Z,99678.86
2022-12-09T09:11:44.901Z,99677.88
2022-12-09T09:14:55.548Z,99677.09
2022-12-09T09:17:49.795Z,99676.76
2022-12-09T09:20:52.432Z,99675.69
2022-12-09T09:24:22.231Z,99675.89
2022-12-09T09:28:30.448Z,99676.41
2022-12-09T09:33:05.966Z,99675.43
2022-12-09T09:36:10.418Z,99672.46
2022-12-09T09:38:59.470Z,99667.38
2022-12-09T09:41:54.462Z,99667.17
2022-12-09T09:44:46.456Z,99668.89
2022-12-09T09:47:48.802Z,99673.17
2022-12-09T09:50:52.427Z,99665.06
2022-12-09T09:53:40.499Z,99666.13
2022-12-09T09:56:47.245Z,99662.92
2022-12-09T09:59:34.362Z,99666.02
2022-12-09T10:02:43.754Z,99665.02
2022-12-09T10:05:34.466Z,99669.48
2022-12-09T10:08:47.641Z,99667.74
2022-12-09T10:12:06.525Z,99667.08
2022-12-09T10:15:31.841Z,99663.95
2022-12-09T10:18:26.116Z,99663.30
2022-12-09T10:21:42.242Z,99659.91
2022-12-09T10:24:39.272Z,99655.84
2022-12-09T10:27:32.118Z,99661.36
2022-12-09T10:31:43.777Z,99657.56
2022-12-09T10:34:30.384Z,99656.48
2022-12-09T10:37:33.818Z,99654.64
2022-12-09T10:41:11.763Z,99660.53
2022-12-09T10:44:18.890Z,99659.79
2022-12-09T10:47:25.111Z,99658.96
2022-12-09T10:50:29.090Z,99659.25
2022-12-09T10:53:16.772Z,99657.15
2022-12-09T10:56:04.212Z,99657.12
2022-12-09T10:59:18.834Z,99657.87
2022-12-09T11:02:08.289Z,99661.08
2022-12-09T11:04:57.217Z,99662.26
2022-12-09T11:07:50.504Z,99656.61
2022-12-09T11:10:38.311Z,99656.25
2022-12-09T11:13:36.607Z,99652.48
2022-12-09T11:16:27.978Z,99653.47
2022-12-09T11:19:16.010Z,99652.61
2022-12-09T11:22:47.539Z,99651.77
2022-12-09T11:25:36.292Z,99655.34
2022-12-09T11:28:29.531Z,99648.77
2022-12-09T11:31:30.271Z,99646.85
2022-12-09T11:34:26.225Z,99650.33
2022-12-09T11:37:12.887Z,99649.60
2022-12-09T11:39:59.641Z,99653.70
2022-12-09T11:42:57.103Z,99647.42
2022-12-09T11:45:45.779Z,99647.17
2022-12-09T11:48:40.062Z,99641.80
2022-12-09T11:51:33.795Z,99636.75
2022-12-09T11:54:34.880Z,99637.70
2022-12-09T11:57:47.709Z,99639.52
2022-12-09T12:00:39.621Z,99641.32
2022-12-09T12:03:36.692Z,99635.50
2022-12-09T12:06:26.376Z,99637.68
2022-12-09T12:09:27.201Z,99632.25
2022-12-09T12:12:35.573Z,99634.33
2022-12-09T12:15:43.472Z,99636.23
2022-12-09T12:18:34.466Z,99634.77
2022-12-09T12:21:49.930Z,99640.36
2022-12-09T12:24:55.141Z,99643.05
2022-12-09T12:27:50.960Z,99647.85
2022-12-09T12:30:49.371Z,99644.45
2022-12-09T12:34:23.024Z,99640.73
2022-12-09T12:37:53.088Z,99642.20
2022-12-09T12:41:14.033Z,99639.88
2022-12-09T12:44:29.028Z,99643.79
2022-12-09T12:47:35.455Z,99642.77
2022-12-09T12:50:38.817Z,99638.24
2022-12-09T12:54:07.280Z,99639.77
2022-12-09T12:57:31.697Z,99638.66
2022-12-09T13:00:21.426Z,99640.08
2022-12-09T13:03:27.010Z,99638.58
2022-12-09T13:06:18.575Z,99638.03
2022-12-09T13:09:14.901Z,99641.57
2022-12-09T13:12:10.702Z,99646.23
2022-12-09T13:14:57.151Z,99646.36
2022-12-09T13:17:46.964Z,99646.30
2022-12-09T13:20:44.411Z,99645.07
2022-12-09T13:23:31.207Z,99647.70
2022-12-09T13:26:36.390Z,99638.98
2022-12-09T13:29:36.686Z,99637.35
2022-12-09T13:33:13.565Z,99639.89
2022-12-09T13:36:36.936Z,99633.66
2022-12-09T13:39:42.226Z,99635.42
2022-12-09T13:42:47.667Z,99641.48
2022-12-09T13:45:43.223Z,99640.08
2022-12-09T13:48:32.874Z,99643.99
2022-12-09T14:03:07.154Z,99651.35
2022-12-09T14:16:28.992Z,99652.25
2022-12-09T14:19:54.261Z,99655.95
2022-12-09T14:23:31.653Z,99651.84
2022-12-09T14:38:11.015Z,99660.11
2022-12-09T14:41:17.288Z,99661.33
2022-12-09T14:44:20.986Z,99659.75
2022-12-09T14:47:25.064Z,99655.20
2022-12-09T14:50:29.858Z,99651.06
2022-12-09T14:53:22.995Z,99647.58
2022-12-09T14:57:17.549Z,99646.20
2022-12-09T15:00:06.544Z,99646.39
2022-12-09T15:03:23.473Z,99640.06
2022-12-09T15:06:04.928Z,99644.98
2022-12-09T15:08:55.370Z,99638.13
2022-12-09T15:11:41.755Z,99633.68
2022-12-09T15:14:32.841Z,99626.77
2022-12-09T15:17:27.550Z,99626.49
2022-12-09T15:20:42.235Z,99629.52
2022-12-09T15:23:35.908Z,99623.10
2022-12-09T15:28:21.464Z,99617.71
2022-12-09T15:31:18.771Z,99619.70
2022-12-09T15:34:14.462Z,99622.27
2022-12-09T15:37:05.573Z,99626.52
2022-12-09T15:40:19.365Z,99628.00
2022-12-09T15:43:11.124Z,99628.41
2022-12-09T15:46:00.010Z,99626.73
2022-12-09T15:48:51.155Z,99628.35
2022-12-09T15:51:41.998Z,99628.71
2022-12-09T15:54:36.945Z,99625.63
2022-12-09T15:57:24.104Z,99615.50
2022-12-09T16:00:11.596Z,99610.14
2022-12-09T16:03:00.649Z,99609.88
2022-12-09T16:05:57.133Z,99608.27
2022-12-09T16:08:44.710Z,99606.15
2022-12-09T16:11:45.672Z,99600.31
2022-12-09T16:14:44.425Z,99600.04
2022-12-09T16:17:34.512Z,99595.16
2022-12-09T16:20:30.341Z,99597.96
2022-12-09T16:23:21.748Z,99593.44
2022-12-09T16:26:18.861Z,99581.77
2022-12-09T16:29:25.809Z,99581.79
2022-12-09T16:32:21.628Z,99587.02
2022-12-09T16:35:10.704Z,99584.52
2022-12-09T16:37:57.007Z,99588.04
2022-12-09T16:40:46.245Z,99584.83
2022-12-09T16:43:33.923Z,99585.18
2022-12-09T16:46:20.438Z,99578.95
2022-12-09T16:49:08.363Z,99575.39
2022-12-09T16:51:55.140Z,99577.23
2022-12-09T16:54:44.477Z,99579.84
2022-12-09T16:57:31.169Z,99573.00
2022-12-09T17:00:18.614Z,99574.25
2022-12-09T17:03:10.654Z,99576.98
2022-12-09T17:05:57.172Z,99576.92
2022-12-09T17:08:44.121Z,99573.98
2022-12-09T17:11:30.682Z,99567.13
2022-12-09T17:14:17.917Z,99580.33
2022-12-09T17:17:04.851Z,99584.89
2022-12-09T17:19:54.102Z,99585.55
2022-12-09T17:22:40.669Z,99591.26
2022-12-09T17:25:33.014Z,99587.77
2022-12-09T17:28:19.390Z,99587.88
2022-12-09T17:31:10.662Z,99586.68
2022-12-09T17:33:57.381Z,99590.92
2022-12-09T17:36:44.301Z,99587.64
2022-12-09T17:39:30.992Z,99591.55
2022-12-09T17:42:17.415Z,99595.01
2022-12-09T17:45:05.245Z,99594.21
2022-12-09T17:47:52.230Z,99593.61
2022-12-09T17:50:39.414Z,99589.09
2022-12-09T17:53:25.556Z,99594.73
2022-12-09T17:56:19.809Z,99601.40
2022-12-09T17:59:09.820Z,99603.23
2022-12-09T18:01:56.312Z,99590.48
2022-12-09T18:04:44.441Z,99585.70
2022-12-09T18:07:30.818Z,99592.97
2022-12-09T18:10:17.513Z,99594.38
2022-12-09T18:13:03.801Z,99587.41
2022-12-09T18:15:54.210Z,99583.23
2022-12-09T18:18:42.440Z,99588.89
2022-12-09T18:21:28.863Z,99587.84
2022-12-09T18:24:15.115Z,99586.46
2022-12-09T18:27:01.812Z,99579.09
2022-12-09T18:29:48.267Z,99575.33
2022-12-09T18:32:36.356Z,99573.14
2022-12-09T18:35:23.850Z,99573.86
2022-12-09T18:38:13.050Z,99575.80
2022-12-09T18:41:01.091Z,99573.55
2022-12-09T18:43:50.905Z,99571.58
2022-12-09T18:46:40.079Z,99569.19
2022-12-09T18:49:28.431Z,99567.21
2022-12-09T18:52:14.930Z,99570.52
2022-12-09T18:55:01.535Z,99573.91
2022-12-09T18:57:48.037Z,99570.29
2022-12-09T19:00:35.880Z,99569.99
2022-12-09T19:03:24.408Z,99572.96
2022-12-09T19:06:29.704Z,99569.35
2022-12-09T19:09:18.709Z,99567.14
2022-12-09T19:15:13.692Z,99564.62
2022-12-09T19:17:59.948Z,99566.27
2022-12-09T19:20:48.145Z,99565.67
2022-12-09T19:23:35.918Z,99563.86
2022-12-09T19:26:27.858Z,99565.70
2022-12-09T19:29:15.254Z,99568.98
2022-12-09T19:32:01.606Z,99566.31
2022-12-09T19:34:48.156Z,99564.02
2022-12-09T19:37:34.312Z,99567.73
2022-12-09T19:40:20.900Z,99566.61
2022-12-09T19:43:07.412Z,99572.14
2022-12-09T19:45:54.629Z,99574.91
2022-12-09T19:48:44.262Z,99576.16
2022-12-09T19:51:30.933Z,99574.52
2022-12-09T19:54:17.967Z,99572.07
2022-12-09T19:57:04.589Z,99575.36
2022-12-09T19:59:51.208Z,99570.07
2022-12-09T20:02:38.001Z,99563.15
2022-12-09T20:05:24.206Z,99560.77
2022-12-09T20:08:12.895Z,99556.45
2022-12-09T20:10:59.300Z,99554.98
2022-12-09T20:13:46.411Z,99553.94
2022-12-09T20:16:32.956Z,99558.69
2022-12-09T20:19:19.788Z,99555.13
2022-12-09T20:22:06.383Z,99554.59
2022-12-09T20:24:53.417Z,99552.23
2022-12-09T20:27:39.982Z,99551.34
2022-12-09T20:30:28.749Z,99549.53
2022-12-09T20:33:15.250Z,99550.27
2022-12-09T20:36:09.573Z,99549.65
2022-12-09T20:39:03.782Z,99549.48
2022-12-09T20:41:50.404Z,99545.80
2022-12-09T20:44:36.698Z,99547.58
2022-12-09T20:47:23.495Z,99546.04
2022-12-09T20:50:10.793Z,99539.95
2022-12-09T20:52:57.582Z,99541.39
2022-12-09T20:55:43.799Z,99540.70
2022-12-09T20:58:30.389Z,99535.08
2022-12-09T21:01:20.074Z,99536.86
2022-12-09T21:04:07.412Z,99534.36
2022-12-09T21:06:53.914Z,99534.14
2022-12-09T21:09:40.423Z,99530.61
2022-12-09T21:12:27.197Z,99529.95
2022-12-09T21:15:14.249Z,99527.74
2022-12-09T21:18:00.480Z,99531.26
2022-12-09T21:20:47.121Z,99533.11
2022-12-09T21:23:35.471Z,99533.59
2022-12-09T21:26:24.021Z,99528.27
2022-12-09T21:29:11.857Z,99526.40
2022-12-09T21:31:58.487Z,99526.58
2022-12-09T21:34:44.951Z,99526.52
2022-12-09T21:37:31.506Z,99524.00
2022-12-09T21:40:18.182Z,99524.70
2022-12-09T21:43:05.025Z,99524.97
2022-12-09T21:45:51.623Z,99523.48
2022-12-09T21:48:39.975Z,99520.93
2022-12-09T21:51:27.104Z,99521.91
2022-12-09T21:54:13.693Z,99520.25
2022-12-09T21:57:00.466Z,99518.55
2022-12-09T21:59:47.405Z,99516.61
2022-12-09T22:02:34.027Z,99513.70
2022-12-09T22:05:20.693Z,99511.52
2022-12-09T22:08:07.388Z,99511.08
2022-12-09T22:10:54.125Z,99505.10
2022-12-09T22:13:42.292Z,99502.69
2022-12-09T22:16:34.578Z,99496.77
2022-12-09T22:19:24.155Z,99494.06
2022-12-09T22:22:12.839Z,99487.06
2022-12-09T22:24:59.602Z,99479.17
2022-12-09T22:27:46.325Z,99477.34
2022-12-09T22:30:38.215Z,99482.35
2022-12-09T22:33:24.956Z,99481.30
2022-12-09T22:36:16.119Z,99481.27
2022-12-09T22:39:05.767Z,99480.71
2022-12-09T22:41:56.018Z,99476.50
2022-12-09T22:44:45.603Z,99476.98
2022-12-09T22:47:32.581Z,99472.52
2022-12-09T22:50:19.852Z,99462.78
2022-12-09T22:53:06.423Z,99465.43
2022-12-09T22:55:54.639Z,99464.34
2022-12-09T22:58:43.472Z,99461.13
2022-12-09T23:01:35.777Z,99461.52
2022-12-09T23:04:23.224Z,99453.45
2022-12-09T23:07:10.194Z,99451.49
2022-12-09T23:09:57.005Z,99447.42
2022-12-09T23:12:43.386Z,99443.48
2022-12-09T23:15:32.255Z,99440.65
2022-12-09T23:18:21.387Z,99435.79
2022-12-09T23:21:20.687Z,99436.10
2022-12-09T23:24:11.668Z,99433.52
2022-12-09T23:26:59.068Z,99437.08
2022-12-09T23:29:45.854Z,99442.90
2022-12-09T23:32:32.484Z,99438.01
2022-12-09T23:35:19.203Z,99438.26
2022-12-09T23:38:06.854Z,99441.67
2022-12-09T23:40:54.093Z,99443.68
2022-12-09T23:43:42.918Z,99444.88
2022-12-09T23:46:32.720Z,99440.69
2022-12-09T23:49:20.836Z,99430.94
2022-12-09T23:52:11.048Z,99430.27
2022-12-09T23:55:02.534Z,99425.83
2022-12-09T23:57:50.807Z,99420.29
